createdAt,value
2022-12-26T00:02:05.755Z,100787.34
2022-12-26T00:04:48.538Z,100789.09
2022-12-26T00:07:20.265Z,100784.72
2022-12-26T00:09:50.105Z,100788.22
2022-12-26T00:12:19.794Z,100789.09
2022-12-26T00:14:49.560Z,100789.97
2022-12-26T00:17:21.856Z,100791.72
2022-12-26T00:19:51.612Z,100786.47
2022-12-26T00:22:21.479Z,100785.59
2022-12-26T00:24:51.621Z,100778.59
2022-12-26T00:27:21.342Z,100778.56
2022-12-26T00:29:51.084Z,100769.72
2022-12-26T00:32:23.435Z,100769.66
2022-12-26T00:34:53.141Z,100773.06
2022-12-26T00:37:22.852Z,100779.19
2022-12-26T00:39:52.603Z,100778.31
2022-12-26T00:42:22.305Z,100783.38
2022-12-26T00:44:52.013Z,100781.59
2022-12-26T00:47:24.357Z,100775.41
2022-12-26T00:50:11.433Z,100772.81
2022-12-26T00:52:43.743Z,100772.81
2022-12-26T00:55:13.719Z,100776.34
2022-12-26T00:57:43.469Z,100781.66
2022-12-26T01:00:14.741Z,100780.75
2022-12-26T01:02:47.324Z,100781.53
2022-12-26T01:05:17.194Z,100767.44
2022-12-26T01:08:22.944Z,100774.50
2022-12-26T01:10:36.651Z,100779.81
2022-12-26T01:13:06.402Z,100782.44
2022-12-26T01:15:36.112Z,100786.78
2022-12-26T01:18:08.644Z,100784.25
2022-12-26T01:20:38.377Z,100776.28
2022-12-26T01:23:08.094Z,100782.41
2022-12-26T01:25:37.841Z,100794.59
2022-12-26T01:28:27.593Z,100786.69
2022-12-26T01:30:57.330Z,100792.84
2022-12-26T01:33:29.718Z,100792.91
2022-12-26T01:35:59.677Z,100787.66
2022-12-26T01:38:29.435Z,100794.75
2022-12-26T01:41:11.407Z,100798.28
2022-12-26T01:43:59.744Z,100798.34
2022-12-26T01:46:33.885Z,100801.00
2022-12-26T01:49:12.246Z,100808.94
2022-12-26T01:51:46.510Z,100805.34
2022-12-26T01:54:40.048Z,100797.41
2022-12-26T01:57:12.811Z,100804.31
2022-12-26T01:59:44.961Z,100798.97
2022-12-26T02:02:15.034Z,100796.28
2022-12-26T02:05:04.116Z,100798.91
2022-12-26T02:07:35.314Z,100805.78
2022-12-26T02:10:06.446Z,100797.03
2022-12-26T02:12:39.207Z,100799.66
2022-12-26T02:15:13.109Z,100793.50
2022-12-26T02:17:45.630Z,100789.06
2022-12-26T02:20:27.619Z,100790.91
2022-12-26T02:23:37.917Z,100786.63
2022-12-26T02:26:39.132Z,100796.25
2022-12-26T02:29:42.534Z,100790.13
2022-12-26T02:32:24.485Z,100780.47
2022-12-26T02:35:04.579Z,100784.88
2022-12-26T02:37:46.753Z,100776.97
2022-12-26T02:40:36.062Z,100778.75
2022-12-26T02:43:16.489Z,100775.25
2022-12-26T02:46:06.131Z,100781.44
2022-12-26T02:48:47.134Z,100779.69
2022-12-26T02:51:41.463Z,100782.31
2022-12-26T02:54:34.443Z,100793.78
2022-12-26T02:57:20.809Z,100777.97
2022-12-26T03:00:18.256Z,100774.50
2022-12-26T03:03:06.202Z,100765.72
2022-12-26T03:05:55.217Z,100751.69
2022-12-26T03:08:43.422Z,100749.94
2022-12-26T03:11:26.020Z,100742.06
2022-12-26T03:13:57.651Z,100743.88
2022-12-26T03:16:41.293Z,100732.59
2022-12-26T03:19:15.117Z,100737.00
2022-12-26T03:21:50.247Z,100736.16
2022-12-26T03:24:20.809Z,100750.13
2022-12-26T03:26:52.751Z,100729.06
2022-12-26T03:29:36.719Z,100737.84
2022-12-26T03:32:09.414Z,100737.84
2022-12-26T03:34:41.911Z,100741.34
2022-12-26T03:37:47.314Z,100739.50
2022-12-26T03:40:48.105Z,100736.00
2022-12-26T03:43:40.817Z,100730.69
2022-12-26T03:46:33.288Z,100730.69
2022-12-26T03:49:21.586Z,100730.75
2022-12-26T03:52:14.267Z,100717.63
2022-12-26T03:55:05.169Z,100719.38
2022-12-26T03:57:55.135Z,100718.50
2022-12-26T04:00:37.396Z,100733.38
2022-12-26T04:03:25.503Z,100739.44
2022-12-26T04:06:08.901Z,100742.88
2022-12-26T04:09:00.731Z,100737.59
2022-12-26T04:11:47.474Z,100723.66
2022-12-26T04:14:43.475Z,100714.94
2022-12-26T04:17:32.588Z,100718.41
2022-12-26T04:20:10.919Z,100723.66
2022-12-26T04:22:59.223Z,100734.16
2022-12-26T04:25:50.251Z,100722.75
2022-12-26T04:28:37.967Z,100724.47
2022-12-26T04:31:25.713Z,100717.47
2022-12-26T04:34:13.399Z,100715.81
2022-12-26T04:36:59.479Z,100714.13
2022-12-26T04:39:46.897Z,100715.09
2022-12-26T04:42:30.175Z,100720.44
2022-12-26T04:45:03.100Z,100720.44
2022-12-26T04:47:34.573Z,100716.94
2022-12-26T04:50:12.369Z,100710.78
2022-12-26T04:52:54.835Z,100711.56
2022-12-26T04:55:24.607Z,100715.03
2022-12-26T04:57:54.384Z,100718.56
2022-12-26T05:00:28.625Z,100705.44
2022-12-26T05:03:16.393Z,100705.31
2022-12-26T05:06:10.607Z,100707.94
2022-12-26T05:08:55.026Z,100708.72
2022-12-26T05:11:25.110Z,100694.63
2022-12-26T05:13:56.007Z,100705.22
2022-12-26T05:16:41.473Z,100710.47
2022-12-26T05:19:26.443Z,100703.44
2022-12-26T05:22:08.833Z,100705.09
2022-12-26T05:24:54.870Z,100696.28
2022-12-26T05:27:37.714Z,100694.50
2022-12-26T05:30:09.252Z,100704.94
2022-12-26T05:32:53.962Z,100707.50
2022-12-26T05:35:23.725Z,100703.09
2022-12-26T05:37:53.449Z,100701.31
2022-12-26T05:40:23.171Z,100711.69
2022-12-26T05:42:52.919Z,100707.19
2022-12-26T05:45:23.073Z,100708.88
2022-12-26T05:48:00.940Z,100713.16
2022-12-26T05:50:30.702Z,100703.56
2022-12-26T05:53:00.882Z,100704.41
2022-12-26T05:55:30.662Z,100711.41
2022-12-26T05:58:03.183Z,100704.47
2022-12-26T06:00:33.047Z,100707.13
2022-12-26T06:03:05.507Z,100711.56
2022-12-26T06:05:35.560Z,100709.81
2022-12-26T06:08:05.336Z,100708.16
2022-12-26T06:10:35.044Z,100710.78
2022-12-26T06:13:04.801Z,100696.69
2022-12-26T06:15:34.551Z,100706.34
2022-12-26T06:18:07.005Z,100704.56
2022-12-26T06:20:36.745Z,100691.38
2022-12-26T06:23:06.475Z,100686.19
2022-12-26T06:25:36.349Z,100688.81
2022-12-26T06:28:06.313Z,100694.06
2022-12-26T06:30:36.054Z,100687.94
2022-12-26T06:33:08.391Z,100675.72
2022-12-26T06:35:38.138Z,100687.16
2022-12-26T06:38:07.851Z,100687.16
2022-12-26T06:40:37.606Z,100678.47
2022-12-26T06:43:07.341Z,100678.47
2022-12-26T06:45:37.130Z,100681.13
2022-12-26T06:48:09.648Z,100675.97
2022-12-26T06:50:39.628Z,100680.31
2022-12-26T06:53:09.316Z,100676.00
2022-12-26T06:55:39.006Z,100677.78
2022-12-26T06:58:08.743Z,100684.00
2022-12-26T07:00:38.489Z,100684.00
2022-12-26T07:03:10.940Z,100682.28
2022-12-26T07:05:42.488Z,100677.03
2022-12-26T07:08:12.222Z,100671.78
2022-12-26T07:10:41.945Z,100668.34
2022-12-26T07:13:11.658Z,100661.28
2022-12-26T07:15:41.374Z,100667.38
2022-12-26T07:18:13.733Z,100670.91
2022-12-26T07:20:43.459Z,100660.31
2022-12-26T07:23:13.255Z,100655.94
2022-12-26T07:25:43.061Z,100662.03
2022-12-26T07:28:12.910Z,100644.53
2022-12-26T07:30:42.630Z,100657.75
2022-12-26T07:33:15.062Z,100642.00
2022-12-26T07:35:44.827Z,100633.25
2022-12-26T07:38:15.184Z,100630.56
2022-12-26T07:40:44.975Z,100625.28
2022-12-26T07:43:14.737Z,100622.56
2022-12-26T07:45:46.021Z,100635.69
2022-12-26T07:48:18.547Z,100625.97
2022-12-26T07:50:49.844Z,100628.47
2022-12-26T07:53:19.749Z,100634.56
2022-12-26T07:55:49.804Z,100624.00
2022-12-26T07:58:19.783Z,100629.25
2022-12-26T08:00:49.615Z,100618.75
2022-12-26T08:03:22.222Z,100617.94
2022-12-26T08:05:54.325Z,100619.66
2022-12-26T08:08:24.089Z,100611.72
2022-12-26T08:11:02.232Z,100605.59
2022-12-26T08:13:32.922Z,100602.97
2022-12-26T08:16:02.846Z,100606.38
2022-12-26T08:18:35.493Z,100611.63
2022-12-26T08:21:05.332Z,100612.34
2022-12-26T08:23:36.030Z,100622.81
2022-12-26T08:26:09.616Z,100623.72
2022-12-26T08:28:39.600Z,100620.19
2022-12-26T08:31:10.421Z,100630.72
2022-12-26T08:33:43.102Z,100624.59
2022-12-26T08:36:17.064Z,100614.97
2022-12-26T08:38:46.928Z,100601.84
2022-12-26T08:41:17.634Z,100608.91
2022-12-26T08:44:25.616Z,100617.69
2022-12-26T08:46:40.165Z,100622.13
2022-12-26T08:49:12.527Z,100612.50
2022-12-26T08:51:42.688Z,100603.84
2022-12-26T08:54:12.451Z,100623.19
2022-12-26T08:56:42.437Z,100632.81
2022-12-26T08:59:12.348Z,100637.19
2022-12-26T09:01:43.134Z,100642.38
2022-12-26T09:04:15.616Z,100627.47
2022-12-26T09:06:45.338Z,100646.72
2022-12-26T09:09:15.704Z,100655.41
2022-12-26T09:11:45.684Z,100651.00
2022-12-26T09:14:15.694Z,100651.00
2022-12-26T09:16:50.847Z,100657.06
2022-12-26T09:19:24.908Z,100670.28
2022-12-26T09:22:15.988Z,100652.75
2022-12-26T09:24:45.744Z,100667.72
2022-12-26T09:27:15.490Z,100666.00
2022-12-26T09:29:45.261Z,100674.81
2022-12-26T09:32:14.970Z,100688.81
2022-12-26T09:34:47.333Z,100688.75
2022-12-26T09:37:17.030Z,100706.25
2022-12-26T09:39:46.815Z,100708.78
2022-12-26T09:42:26.642Z,100724.28
2022-12-26T09:45:04.575Z,100730.13
2022-12-26T09:47:36.410Z,100721.16
2022-12-26T09:50:15.648Z,100740.16
2022-12-26T09:52:51.558Z,100751.19
2022-12-26T09:55:37.096Z,100752.63
2022-12-26T09:58:14.889Z,100753.94
2022-12-26T10:00:51.680Z,100764.91
2022-12-26T10:03:21.488Z,100761.06
2022-12-26T10:06:13.186Z,100766.09
2022-12-26T10:09:02.365Z,100772.00
2022-12-26T10:11:40.673Z,100791.13
2022-12-26T10:14:21.834Z,100787.63
2022-12-26T10:16:58.827Z,100786.66
2022-12-26T10:19:42.664Z,100801.50
2022-12-26T10:22:33.451Z,100813.69
2022-12-26T10:25:05.932Z,100826.78
2022-12-26T10:27:43.965Z,100825.09
2022-12-26T10:30:21.032Z,100836.38
2022-12-26T10:32:55.383Z,100851.31
2022-12-26T10:35:31.876Z,100861.78
2022-12-26T10:38:09.473Z,100857.31
2022-12-26T10:40:43.486Z,100872.88
2022-12-26T10:43:26.876Z,100876.22
2022-12-26T10:46:11.659Z,100888.28
2022-12-26T10:48:41.537Z,100891.63
2022-12-26T10:51:13.091Z,100910.75
2022-12-26T10:53:50.552Z,100919.28
2022-12-26T10:56:20.898Z,100921.66
2022-12-26T10:59:01.436Z,100932.84
2022-12-26T11:01:36.955Z,100929.94
2022-12-26T11:04:09.013Z,100948.25
2022-12-26T11:06:42.134Z,100950.78
2022-12-26T11:09:27.806Z,100955.25
2022-12-26T11:11:57.585Z,100950.78
2022-12-26T11:14:34.725Z,100963.88
2022-12-26T11:17:07.833Z,100964.72
2022-12-26T11:19:40.136Z,100972.59
2022-12-26T11:22:33.795Z,100975.88
2022-12-26T11:25:16.556Z,100976.56
2022-12-26T11:27:47.996Z,100983.38
2022-12-26T11:30:29.244Z,100990.06
2022-12-26T11:33:16.176Z,100993.44
2022-12-26T11:35:51.637Z,100992.44
2022-12-26T11:38:42.469Z,101007.22
2022-12-26T11:41:39.203Z,101020.31
2022-12-26T11:44:19.510Z,101022.22
2022-12-26T11:46:53.123Z,101033.78
2022-12-26T11:49:30.217Z,101028.66
2022-12-26T11:52:01.322Z,101036.56
2022-12-26T11:54:40.078Z,101046.25
2022-12-26T11:57:22.332Z,101048.03
2022-12-26T11:59:54.574Z,101057.63
2022-12-26T12:02:32.863Z,101060.50
2022-12-26T12:05:05.540Z,101067.56
2022-12-26T12:08:09.779Z,101065.94
2022-12-26T12:11:02.727Z,101066.72
2022-12-26T12:13:48.563Z,101068.47
2022-12-26T12:16:34.894Z,101067.66
2022-12-26T12:19:17.424Z,101066.72
2022-12-26T12:21:49.547Z,101060.69
2022-12-26T12:24:32.861Z,101074.91
2022-12-26T12:27:12.281Z,101075.78
2022-12-26T12:30:04.121Z,101082.66
2022-12-26T12:32:44.017Z,101083.66
2022-12-26T12:35:37.057Z,101089.88
2022-12-26T12:38:24.770Z,101092.53
2022-12-26T12:41:04.304Z,101103.19
2022-12-26T12:43:43.361Z,101108.56
2022-12-26T12:46:25.852Z,101111.25
2022-12-26T12:49:06.768Z,101115.59
2022-12-26T12:51:45.693Z,101118.97
2022-12-26T12:55:03.561Z,101117.09
2022-12-26T12:57:43.996Z,101130.91
2022-12-26T13:00:19.644Z,101133.44
2022-12-26T13:02:58.357Z,101138.66
2022-12-26T13:05:47.330Z,101144.81
2022-12-26T13:08:23.958Z,101143.16
2022-12-26T13:10:57.984Z,101137.03
2022-12-26T13:13:33.379Z,101158.00
2022-12-26T13:16:08.997Z,101151.03
2022-12-26T13:18:48.425Z,101154.53
2022-12-26T13:21:19.700Z,101156.25
2022-12-26T13:24:05.112Z,101154.63
2022-12-26T13:26:39.191Z,101161.72
2022-12-26T13:29:16.167Z,101168.00
2022-12-26T13:31:47.527Z,101170.72
2022-12-26T13:34:22.846Z,101177.72
2022-12-26T13:36:54.843Z,101176.84
2022-12-26T13:39:40.845Z,101185.72
2022-12-26T13:42:39.270Z,101189.94
2022-12-26T13:45:39.018Z,101186.34
2022-12-26T13:48:57.753Z,101201.09
2022-12-26T13:51:55.608Z,101208.06
2022-12-26T13:54:27.970Z,101206.34
2022-12-26T13:57:30.077Z,101200.16
2022-12-26T14:00:08.993Z,101213.03
2022-12-26T14:03:19.802Z,101219.75
2022-12-26T14:06:15.264Z,101219.63
2022-12-26T14:09:07.457Z,101225.50
2022-12-26T14:12:00.782Z,101237.63
2022-12-26T14:14:40.950Z,101234.03
2022-12-26T14:17:21.919Z,101248.84
2022-12-26T14:20:05.772Z,101251.31
2022-12-26T14:22:45.613Z,101249.38
2022-12-26T14:25:26.099Z,101255.44
2022-12-26T14:28:02.399Z,101257.06
2022-12-26T14:30:37.960Z,101258.72
2022-12-26T14:33:23.762Z,101260.44
2022-12-26T14:36:05.666Z,101264.63
2022-12-26T14:38:48.563Z,101268.06
2022-12-26T14:41:34.972Z,101271.41
2022-12-26T14:44:20.098Z,101278.28
2022-12-26T14:47:04.994Z,101282.47
2022-12-26T14:49:44.361Z,101287.56
2022-12-26T14:52:49.955Z,101298.84
2022-12-26T14:55:49.715Z,101289.94
2022-12-26T14:58:31.487Z,101294.09
2022-12-26T15:01:36.493Z,101300.00
2022-12-26T15:04:10.268Z,101301.53
2022-12-26T15:07:01.178Z,101303.03
2022-12-26T15:10:01.397Z,101304.69
2022-12-26T15:13:10.662Z,101301.81
2022-12-26T15:16:01.222Z,101313.03
2022-12-26T15:18:58.731Z,101312.94
2022-12-26T15:21:59.768Z,101311.22
2022-12-26T15:25:18.593Z,101312.03
2022-12-26T15:28:17.474Z,101319.53
2022-12-26T15:31:19.975Z,101327.22
2022-12-26T15:33:55.804Z,101326.19
2022-12-26T15:36:33.501Z,101323.22
2022-12-26T15:39:08.618Z,101332.53
2022-12-26T15:41:46.616Z,101335.81
2022-12-26T15:44:26.527Z,101339.97
2022-12-26T15:47:13.471Z,101341.50
2022-12-26T15:49:56.839Z,101337.91
2022-12-26T15:52:40.971Z,101336.84
2022-12-26T15:55:38.334Z,101354.97
2022-12-26T15:58:19.259Z,101352.00
2022-12-26T16:00:52.880Z,101364.09
2022-12-26T16:03:33.781Z,101361.41
2022-12-26T16:06:20.474Z,101359.44
2022-12-26T16:09:09.665Z,101366.28
2022-12-26T16:11:55.583Z,101370.50
2022-12-26T16:14:31.923Z,101366.00
2022-12-26T16:17:22.699Z,101362.41
2022-12-26T16:19:55.743Z,101362.97
2022-12-26T16:22:45.982Z,101355.84
2022-12-26T16:25:19.890Z,101357.56
2022-12-26T16:27:52.781Z,101361.78
2022-12-26T16:30:26.070Z,101361.72
2022-12-26T16:32:56.940Z,101358.19
2022-12-26T16:35:32.369Z,101356.41
2022-12-26T16:38:05.055Z,101367.56
2022-12-26T16:40:36.551Z,101377.03
2022-12-26T16:43:08.564Z,101379.59
2022-12-26T16:45:40.670Z,101373.34
2022-12-26T16:48:12.233Z,101384.53
2022-12-26T16:50:53.013Z,101385.25
2022-12-26T16:53:25.181Z,101390.28
2022-12-26T16:56:01.094Z,101400.72
2022-12-26T16:58:34.253Z,101402.38
2022-12-26T17:01:11.096Z,101404.78
2022-12-26T17:03:54.250Z,101396.78
2022-12-26T17:06:31.329Z,101405.44
2022-12-26T17:09:08.253Z,101401.66
2022-12-26T17:11:40.457Z,101403.38
2022-12-26T17:14:20.626Z,101395.44
2022-12-26T17:16:50.411Z,101399.75
2022-12-26T17:19:22.059Z,101399.66
2022-12-26T17:22:23.366Z,101406.50
2022-12-26T17:24:54.760Z,101399.31
2022-12-26T17:27:27.252Z,101398.41
2022-12-26T17:30:00.721Z,101400.91
2022-12-26T17:32:36.217Z,101404.34
2022-12-26T17:35:09.471Z,101400.75
2022-12-26T17:37:42.449Z,101403.25
2022-12-26T17:40:26.627Z,101410.06
2022-12-26T17:42:58.435Z,101407.19
2022-12-26T17:45:29.734Z,101407.00
2022-12-26T17:48:00.587Z,101406.81
2022-12-26T17:50:34.527Z,101404.09
2022-12-26T17:53:21.860Z,101395.38
2022-12-26T17:55:52.280Z,101393.41
2022-12-26T17:58:22.024Z,101400.13
2022-12-26T18:00:53.074Z,101392.94
2022-12-26T18:03:22.871Z,101409.28
2022-12-26T18:05:52.608Z,101410.91
2022-12-26T18:08:30.100Z,101416.91
2022-12-26T18:11:00.874Z,101411.69
2022-12-26T18:13:31.212Z,101414.28
2022-12-26T18:16:02.011Z,101417.91
2022-12-26T18:18:35.189Z,101414.28
2022-12-26T18:21:06.233Z,101422.84
2022-12-26T18:23:39.091Z,101421.75
2022-12-26T18:26:11.659Z,101432.09
2022-12-26T18:28:41.383Z,101437.44
2022-12-26T18:31:12.490Z,101439.22
2022-12-26T18:33:42.235Z,101446.34
2022-12-26T18:36:14.296Z,101451.66
2022-12-26T18:38:47.497Z,101445.72
2022-12-26T18:41:18.203Z,101447.63
2022-12-26T18:43:47.996Z,101451.28
2022-12-26T18:46:20.309Z,101468.41
2022-12-26T18:48:51.111Z,101451.56
2022-12-26T18:51:20.854Z,101451.47
2022-12-26T18:53:53.259Z,101455.00
2022-12-26T18:56:26.312Z,101471.53
2022-12-26T18:58:58.167Z,101470.84
2022-12-26T19:01:28.813Z,101479.47
2022-12-26T19:03:58.746Z,101486.50
2022-12-26T19:06:30.429Z,101472.53
2022-12-26T19:09:02.816Z,101464.72
2022-12-26T19:11:32.543Z,101475.94
2022-12-26T19:14:02.997Z,101474.34
2022-12-26T19:16:32.777Z,101470.13
2022-12-26T19:19:03.075Z,101484.19
2022-12-26T19:21:32.989Z,101479.09
2022-12-26T19:24:05.385Z,101486.22
2022-12-26T19:26:35.148Z,101483.69
2022-12-26T19:29:05.083Z,101488.13
2022-12-26T19:31:35.140Z,101489.03
2022-12-26T19:34:04.951Z,101483.97
2022-12-26T19:36:34.698Z,101491.81
2022-12-26T19:39:07.284Z,101500.66
2022-12-26T19:41:37.083Z,101506.59
2022-12-26T19:44:06.880Z,101507.31
2022-12-26T19:46:36.638Z,101518.53
2022-12-26T19:49:06.704Z,101512.13
2022-12-26T19:51:36.497Z,101506.69
2022-12-26T19:54:08.908Z,101500.25
2022-12-26T19:56:38.694Z,101511.31
2022-12-26T19:59:08.518Z,101519.84
2022-12-26T20:01:38.339Z,101522.56
2022-12-26T20:04:09.787Z,101518.22
2022-12-26T20:06:42.426Z,101524.34
2022-12-26T20:09:17.247Z,101538.22
2022-12-26T20:11:49.437Z,101558.09
2022-12-26T20:14:21.495Z,101547.56
2022-12-26T20:17:08.906Z,101530.00
2022-12-26T20:19:39.747Z,101542.06
2022-12-26T20:22:11.572Z,101546.25
2022-12-26T20:24:43.940Z,101557.72
2022-12-26T20:27:13.788Z,101559.44
2022-12-26T20:29:43.514Z,101547.97
2022-12-26T20:32:13.390Z,101551.38
2022-12-26T20:34:43.196Z,101552.06
2022-12-26T20:37:12.996Z,101545.88
2022-12-26T20:39:45.307Z,101542.47
2022-12-26T20:42:17.107Z,101544.97
2022-12-26T20:44:46.921Z,101544.19
2022-12-26T20:47:17.599Z,101530.94
2022-12-26T20:49:47.381Z,101542.16
2022-12-26T20:52:18.607Z,101537.75
2022-12-26T20:54:50.926Z,101544.88
2022-12-26T20:57:20.709Z,101553.72
2022-12-26T20:59:50.635Z,101560.72
2022-12-26T21:02:20.499Z,101556.53
2022-12-26T21:04:51.123Z,101555.69
2022-12-26T21:07:20.840Z,101561.81
2022-12-26T21:09:53.183Z,101557.31
2022-12-26T21:12:23.398Z,101564.16
2022-12-26T21:14:53.283Z,101562.13
2022-12-26T21:17:23.053Z,101562.03
2022-12-26T21:19:52.777Z,101570.56
2022-12-26T21:22:23.671Z,101562.53
2022-12-26T21:24:55.979Z,101572.25
2022-12-26T21:27:25.701Z,101571.47
2022-12-26T21:29:55.429Z,101573.38
2022-12-26T21:32:25.168Z,101568.25
2022-12-26T21:34:54.935Z,101579.69
2022-12-26T21:37:37.058Z,101582.50
2022-12-26T21:40:10.787Z,101589.44
2022-12-26T21:42:40.537Z,101598.16
2022-12-26T21:45:11.846Z,101584.09
2022-12-26T21:47:41.660Z,101577.19
2022-12-26T21:50:12.320Z,101576.19
2022-12-26T21:52:42.149Z,101567.53
2022-12-26T21:55:31.294Z,101579.81
2022-12-26T21:58:04.118Z,101577.97
2022-12-26T22:00:35.438Z,101582.31
2022-12-26T22:03:18.029Z,101583.00
2022-12-26T22:05:47.824Z,101584.59
2022-12-26T22:08:17.523Z,101588.03
2022-12-26T22:11:14.547Z,101578.38
2022-12-26T22:13:47.174Z,101586.91
2022-12-26T22:16:16.912Z,101585.00
2022-12-26T22:18:48.903Z,101589.31
2022-12-26T22:21:20.181Z,101591.03
2022-12-26T22:23:52.436Z,101592.63
2022-12-26T22:26:26.018Z,101591.63
2022-12-26T22:28:55.798Z,101589.84
2022-12-26T22:31:28.973Z,101598.44
2022-12-26T22:33:59.775Z,101594.84
2022-12-26T22:36:30.564Z,101594.75
2022-12-26T22:39:01.469Z,101606.06
2022-12-26T22:41:35.166Z,101603.47
2022-12-26T22:44:05.046Z,101612.19
2022-12-26T22:46:34.885Z,101610.28
2022-12-26T22:49:04.625Z,101626.94
2022-12-26T22:51:34.375Z,101645.31
2022-12-26T22:54:04.987Z,101645.50
2022-12-26T22:56:37.348Z,101638.91
2022-12-26T22:59:07.082Z,101639.91
2022-12-26T23:01:36.879Z,101632.28
2022-12-26T23:04:07.530Z,101616.63
2022-12-26T23:06:39.977Z,101613.31
2022-12-26T23:09:16.564Z,101623.94
2022-12-26T23:12:09.521Z,101624.06
2022-12-26T23:14:39.838Z,101628.47
2022-12-26T23:17:33.476Z,101628.38
2022-12-26T23:20:16.994Z,101618.66
2022-12-26T23:22:47.382Z,101625.56
2022-12-26T23:25:17.322Z,101627.06
2022-12-26T23:28:02.110Z,101618.34
2022-12-26T23:30:33.589Z,101623.34
2022-12-26T23:33:03.331Z,101623.13
2022-12-26T23:35:33.087Z,101622.84
2022-12-26T23:38:02.815Z,101621.91
2022-12-26T23:40:32.567Z,101621.72
2022-12-26T23:43:04.884Z,101619.13
2022-12-26T23:45:34.613Z,101614.59
2022-12-26T23:48:04.359Z,101621.53
2022-12-26T23:50:34.083Z,101616.09
2022-12-26T23:53:03.827Z,101623.94
2022-12-26T23:55:33.548Z,101619.50
2022-12-26T23:58:05.922Z,101623.81
